createdAt,value
2022-07-29T00:01:09.343Z,97163.91
2022-07-29T00:03:49.308Z,97159.38
2022-07-29T00:06:17.472Z,97161.19
2022-07-29T00:08:45.649Z,97164.03
2022-07-29T00:11:13.883Z,97159.50
2022-07-29T00:13:42.091Z,97156.78
2022-07-29T00:16:10.215Z,97161.34
2022-07-29T00:18:38.372Z,97165.78
2022-07-29T00:21:07.869Z,97173.88
2022-07-29T00:23:36.933Z,97167.59
2022-07-29T00:26:05.184Z,97169.44
2022-07-29T00:28:33.329Z,97165.78
2022-07-29T00:31:01.464Z,97164.91
2022-07-29T00:33:30.501Z,97162.19
2022-07-29T00:35:57.592Z,97162.19
2022-07-29T00:38:27.108Z,97158.63
2022-07-29T00:40:55.231Z,97155.94
2022-07-29T00:43:23.339Z,97158.63
2022-07-29T00:45:51.438Z,97159.63
2022-07-29T00:48:19.622Z,97157.75
2022-07-29T00:50:47.835Z,97156.94
2022-07-29T00:53:16.046Z,97152.38
2022-07-29T00:55:45.517Z,97157.75
2022-07-29T00:58:14.487Z,97156.06
2022-07-29T01:00:45.433Z,97157.91
2022-07-29T01:03:13.845Z,97164.16
2022-07-29T01:05:50.951Z,97161.47
2022-07-29T01:08:20.071Z,97160.59
2022-07-29T01:10:49.605Z,97155.19
2022-07-29T01:13:18.023Z,97155.19
2022-07-29T01:15:49.174Z,97154.34
2022-07-29T01:18:22.140Z,97152.50
2022-07-29T01:21:02.760Z,97154.34
2022-07-29T01:24:06.068Z,97148.09
2022-07-29T01:26:40.183Z,97142.69
2022-07-29T01:29:13.245Z,97145.41
2022-07-29T01:31:46.411Z,97136.41
2022-07-29T01:34:32.126Z,97139.13
2022-07-29T01:37:07.353Z,97132.84
2022-07-29T01:39:37.394Z,97136.41
2022-07-29T01:42:10.643Z,97138.25
2022-07-29T01:44:43.600Z,97128.47
2022-07-29T01:47:14.634Z,97128.31
2022-07-29T01:49:45.208Z,97123.88
2022-07-29T01:52:15.557Z,97126.59
2022-07-29T01:54:51.064Z,97117.66
2022-07-29T01:57:19.648Z,97112.25
2022-07-29T01:59:49.470Z,97115.78
2022-07-29T02:02:17.977Z,97113.22
2022-07-29T02:04:49.384Z,97113.22
2022-07-29T02:07:19.280Z,97114.06
2022-07-29T02:09:47.370Z,97108.69
2022-07-29T02:12:15.803Z,97117.66
2022-07-29T02:14:46.665Z,97109.66
2022-07-29T02:17:16.415Z,97112.34
2022-07-29T02:19:44.500Z,97113.22
2022-07-29T02:22:12.698Z,97109.66
2022-07-29T02:24:41.296Z,97113.34
2022-07-29T02:27:09.624Z,97109.66
2022-07-29T02:29:37.865Z,97108.81
2022-07-29T02:32:06.717Z,97111.50
2022-07-29T02:34:36.166Z,97104.38
2022-07-29T02:37:04.315Z,97094.44
2022-07-29T02:39:32.421Z,97107.09
2022-07-29T02:42:03.341Z,97101.69
2022-07-29T02:44:34.819Z,97099.13
2022-07-29T02:47:06.393Z,97099.97
2022-07-29T02:49:37.716Z,97100.81
2022-07-29T02:52:06.761Z,97100.09
2022-07-29T02:54:39.263Z,97095.53
2022-07-29T02:57:11.625Z,97097.38
2022-07-29T02:59:39.837Z,97102.69
2022-07-29T03:02:07.977Z,97099.97
2022-07-29T03:04:37.569Z,97103.78
2022-07-29T03:07:05.701Z,97098.38
2022-07-29T03:09:33.836Z,97104.66
2022-07-29T03:12:01.968Z,97108.31
2022-07-29T03:14:30.099Z,97108.31
2022-07-29T03:16:58.225Z,97109.19
2022-07-29T03:19:26.357Z,97113.72
2022-07-29T03:21:57.356Z,97102.91
2022-07-29T03:24:30.168Z,97114.72
2022-07-29T03:26:58.880Z,97109.31
2022-07-29T03:29:32.939Z,97110.28
2022-07-29T03:32:03.683Z,97111.16
2022-07-29T03:34:35.668Z,97116.56
2022-07-29T03:37:05.120Z,97106.72
2022-07-29T03:39:35.745Z,97111.16
2022-07-29T03:42:03.876Z,97114.84
2022-07-29T03:44:32.171Z,97117.53
2022-07-29T03:47:01.078Z,97112.13
2022-07-29T03:49:29.283Z,97104.91
2022-07-29T03:51:57.563Z,97110.44
2022-07-29T03:54:27.311Z,97107.72
2022-07-29T03:56:55.453Z,97111.41
2022-07-29T03:59:23.579Z,97120.38
2022-07-29T04:01:51.765Z,97116.81
2022-07-29T04:04:20.249Z,97116.81
2022-07-29T04:06:48.660Z,97115.97
2022-07-29T04:09:16.759Z,97122.63
2022-07-29T04:12:01.857Z,97123.09
2022-07-29T04:14:30.923Z,97127.28
2022-07-29T04:16:59.067Z,97123.97
2022-07-29T04:19:27.228Z,97122.38
2022-07-29T04:21:55.348Z,97131.59
2022-07-29T04:24:23.476Z,97121.91
2022-07-29T04:26:52.957Z,97128.56
2022-07-29T04:29:21.148Z,97124.97
2022-07-29T04:31:49.269Z,97128.56
2022-07-29T04:34:17.723Z,97126.69
2022-07-29T04:36:46.178Z,97135.91
2022-07-29T04:39:17.048Z,97137.88
2022-07-29T04:41:48.250Z,97127.31
2022-07-29T04:44:18.074Z,97131.38
2022-07-29T04:46:47.182Z,97123.91
2022-07-29T04:49:15.483Z,97124.41
2022-07-29T04:51:43.668Z,97132.00
2022-07-29T04:54:11.845Z,97126.88
2022-07-29T04:56:40.121Z,97122.84
2022-07-29T04:59:08.245Z,97130.16
2022-07-29T05:01:37.995Z,97128.56
2022-07-29T05:04:06.340Z,97123.53
2022-07-29T05:06:34.462Z,97123.66
2022-07-29T05:09:02.545Z,97125.63
2022-07-29T05:11:30.748Z,97127.59
2022-07-29T05:13:58.848Z,97125.13
2022-07-29T05:16:27.053Z,97135.06
2022-07-29T05:18:56.742Z,97130.63
2022-07-29T05:21:24.958Z,97129.03
2022-07-29T05:23:53.045Z,97139.00
2022-07-29T05:26:21.205Z,97137.38
2022-07-29T05:28:49.323Z,97130.38
2022-07-29T05:31:17.641Z,97131.47
2022-07-29T05:33:45.715Z,97127.09
2022-07-29T05:36:15.249Z,97131.63
2022-07-29T05:38:43.288Z,97129.19
2022-07-29T05:41:11.465Z,97123.88
2022-07-29T05:43:39.540Z,97124.00
2022-07-29T05:46:07.765Z,97124.00
2022-07-29T05:48:35.805Z,97126.56
2022-07-29T05:51:04.037Z,97125.84
2022-07-29T05:53:33.660Z,97130.50
2022-07-29T05:56:05.382Z,97122.53
2022-07-29T05:58:33.822Z,97131.22
2022-07-29T06:01:01.988Z,97130.00
2022-07-29T06:03:30.220Z,97127.09
2022-07-29T06:05:58.361Z,97132.13
2022-07-29T06:08:26.449Z,97136.28
2022-07-29T06:10:56.117Z,97131.50
2022-07-29T06:13:24.261Z,97128.56
2022-07-29T06:15:52.513Z,97127.47
2022-07-29T06:18:21.855Z,97122.66
2022-07-29T06:20:49.976Z,97126.00
2022-07-29T06:23:18.105Z,97123.16
2022-07-29T06:25:46.213Z,97128.31
2022-07-29T06:28:16.964Z,97124.69
2022-07-29T06:30:45.221Z,97123.56
2022-07-29T06:33:18.808Z,97119.75
2022-07-29T06:35:53.313Z,97124.19
2022-07-29T06:38:31.174Z,97123.09
2022-07-29T06:41:02.250Z,97120.25
2022-07-29T06:43:34.896Z,97122.81
2022-07-29T06:46:03.943Z,97112.88
2022-07-29T06:48:32.204Z,97113.63
2022-07-29T06:51:00.322Z,97118.03
2022-07-29T06:53:28.876Z,97118.88
2022-07-29T06:55:57.062Z,97115.31
2022-07-29T06:58:25.163Z,97116.31
2022-07-29T07:01:00.327Z,97111.78
2022-07-29T07:03:28.480Z,97129.69
2022-07-29T07:05:56.960Z,97123.19
2022-07-29T07:08:25.265Z,97123.19
2022-07-29T07:10:53.528Z,97120.34
2022-07-29T07:13:21.605Z,97128.31
2022-07-29T07:15:49.906Z,97125.53
2022-07-29T07:18:19.365Z,97117.41
2022-07-29T07:20:47.499Z,97122.69
2022-07-29T07:23:15.594Z,97109.19
2022-07-29T07:25:44.206Z,97122.56
2022-07-29T07:28:12.289Z,97117.16
2022-07-29T07:30:40.589Z,97116.19
2022-07-29T07:33:08.676Z,97119.63
2022-07-29T07:35:38.445Z,97118.63
2022-07-29T07:38:07.168Z,97115.06
2022-07-29T07:40:35.384Z,97118.63
2022-07-29T07:43:03.468Z,97120.34
2022-07-29T07:45:33.644Z,97122.06
2022-07-29T07:48:01.846Z,97112.13
2022-07-29T07:50:29.971Z,97118.38
2022-07-29T07:52:59.681Z,97126.34
2022-07-29T07:55:27.870Z,97120.09
2022-07-29T07:57:55.953Z,97120.94
2022-07-29T08:00:24.144Z,97112.72
2022-07-29T08:02:52.281Z,97114.56
2022-07-29T08:05:20.446Z,97119.00
2022-07-29T08:07:48.668Z,97121.56
2022-07-29T08:10:40.982Z,97126.94
2022-07-29T08:13:09.485Z,97131.34
2022-07-29T08:15:37.747Z,97129.50
2022-07-29T08:18:08.671Z,97124.97
2022-07-29T08:20:37.518Z,97130.38
2022-07-29T08:23:07.009Z,97138.34
2022-07-29T08:25:37.602Z,97143.75
2022-07-29T08:28:08.296Z,97145.47
2022-07-29T08:30:36.475Z,97145.47
2022-07-29T08:33:04.668Z,97143.63
2022-07-29T08:35:35.705Z,97145.34
2022-07-29T08:38:05.448Z,97140.81
2022-07-29T08:40:33.562Z,97143.38
2022-07-29T08:43:08.909Z,97145.22
2022-07-29T08:45:47.338Z,97151.47
2022-07-29T08:48:16.858Z,97147.78
2022-07-29T08:50:48.064Z,97155.06
2022-07-29T08:53:17.942Z,97148.66
2022-07-29T08:55:47.082Z,97160.31
2022-07-29T08:58:16.603Z,97161.19
2022-07-29T09:00:46.149Z,97165.72
2022-07-29T09:03:16.924Z,97156.63
2022-07-29T09:05:48.072Z,97157.47
2022-07-29T09:08:16.758Z,97166.44
2022-07-29T09:10:45.815Z,97163.75
2022-07-29T09:13:13.944Z,97170.00
2022-07-29T09:15:43.472Z,97172.72
2022-07-29T09:18:19.775Z,97176.16
2022-07-29T09:21:16.761Z,97166.31
2022-07-29T09:24:02.892Z,97169.88
2022-07-29T09:26:31.744Z,97172.59
2022-07-29T09:29:00.149Z,97163.63
2022-07-29T09:31:39.766Z,97169.88
2022-07-29T09:34:08.791Z,97163.47
2022-07-29T09:36:43.213Z,97158.06
2022-07-29T09:39:11.306Z,97164.34
2022-07-29T09:41:47.447Z,97164.34
2022-07-29T09:44:15.824Z,97160.69
2022-07-29T09:46:59.119Z,97165.22
2022-07-29T09:49:27.526Z,97165.22
2022-07-29T09:52:03.095Z,97168.78
2022-07-29T09:54:37.521Z,97170.63
2022-07-29T09:57:07.573Z,97172.31
2022-07-29T09:59:35.747Z,97169.63
2022-07-29T10:02:12.993Z,97173.19
2022-07-29T10:04:41.894Z,97177.72
2022-07-29T10:07:10.041Z,97164.22
2022-07-29T10:09:38.267Z,97168.66
2022-07-29T10:12:11.878Z,97165.09
2022-07-29T10:14:40.277Z,97170.34
2022-07-29T10:17:10.548Z,97169.50
2022-07-29T10:19:39.264Z,97159.53
2022-07-29T10:22:08.449Z,97160.41
2022-07-29T10:24:36.671Z,97160.41
2022-07-29T10:27:05.669Z,97162.16
2022-07-29T10:29:34.047Z,97152.19
2022-07-29T10:32:19.143Z,97152.19
2022-07-29T10:35:10.834Z,97147.63
2022-07-29T10:37:46.581Z,97144.06
2022-07-29T10:40:37.518Z,97136.84
2022-07-29T10:43:16.565Z,97136.84
2022-07-29T10:45:44.821Z,97133.16
2022-07-29T10:48:14.304Z,97139.28
2022-07-29T10:50:59.821Z,97127.50
2022-07-29T10:53:48.596Z,97131.94
2022-07-29T10:56:25.680Z,97126.53
2022-07-29T10:59:32.386Z,97124.59
2022-07-29T11:02:35.261Z,97136.97
2022-07-29T11:05:04.557Z,97126.16
2022-07-29T11:07:45.710Z,97121.47
2022-07-29T11:10:27.055Z,97123.22
2022-07-29T11:12:59.831Z,97121.38
2022-07-29T11:15:28.505Z,97117.53
2022-07-29T11:18:14.995Z,97114.00
2022-07-29T11:20:45.877Z,97114.84
2022-07-29T11:23:21.076Z,97120.25
2022-07-29T11:26:12.864Z,97126.50
2022-07-29T11:28:42.069Z,97122.94
2022-07-29T11:31:10.268Z,97125.53
2022-07-29T11:33:56.530Z,97120.13
2022-07-29T11:36:28.081Z,97126.38
2022-07-29T11:39:23.045Z,97123.66
2022-07-29T11:41:53.297Z,97123.66
2022-07-29T11:44:28.449Z,97127.22
2022-07-29T11:46:57.228Z,97115.47
2022-07-29T11:49:32.101Z,97116.28
2022-07-29T11:52:04.149Z,97115.47
2022-07-29T11:54:33.810Z,97114.59
2022-07-29T11:57:22.494Z,97119.00
2022-07-29T11:59:50.880Z,97118.16
2022-07-29T12:02:37.080Z,97121.59
2022-07-29T12:05:10.440Z,97118.63
2022-07-29T12:07:47.130Z,97115.78
2022-07-29T12:10:19.795Z,97119.22
2022-07-29T12:12:53.297Z,97112.84
2022-07-29T12:15:22.529Z,97112.69
2022-07-29T12:17:50.836Z,97117.13
2022-07-29T12:20:24.895Z,97117.84
2022-07-29T12:22:55.772Z,97116.84
2022-07-29T12:25:32.544Z,97119.41
2022-07-29T12:28:02.020Z,97124.72
2022-07-29T12:30:39.952Z,97118.44
2022-07-29T12:33:20.373Z,97116.63
2022-07-29T12:36:03.531Z,97113.91
2022-07-29T12:38:36.981Z,97114.63
2022-07-29T12:41:05.456Z,97110.94
2022-07-29T12:43:34.816Z,97102.81
2022-07-29T12:46:15.964Z,97107.13
2022-07-29T12:48:44.970Z,97102.59
2022-07-29T12:51:15.471Z,97105.28
2022-07-29T12:54:03.768Z,97093.75
2022-07-29T12:56:47.314Z,97102.81
2022-07-29T12:59:16.786Z,97101.13
2022-07-29T13:01:45.123Z,97096.56
2022-07-29T13:04:13.265Z,97104.81
2022-07-29T13:06:42.705Z,97100.25
2022-07-29T13:09:17.902Z,97101.22
2022-07-29T13:11:58.694Z,97096.69
2022-07-29T13:14:33.640Z,97096.69
2022-07-29T13:17:06.846Z,97093.13
2022-07-29T13:19:36.256Z,97092.16
2022-07-29T13:22:04.418Z,97074.94
2022-07-29T13:24:34.229Z,97075.66
2022-07-29T13:27:02.423Z,97072.84
2022-07-29T13:29:34.387Z,97070.97
2022-07-29T13:32:02.444Z,97063.75
2022-07-29T13:34:30.612Z,97064.47
2022-07-29T13:36:58.660Z,97081.53
2022-07-29T13:39:26.807Z,97071.59
2022-07-29T13:41:56.579Z,97073.44
2022-07-29T13:44:25.801Z,97063.59
2022-07-29T13:46:53.964Z,97067.16
2022-07-29T13:49:22.180Z,97060.78
2022-07-29T13:51:50.844Z,97066.19
2022-07-29T13:54:19.106Z,97067.03
2022-07-29T13:56:47.210Z,97062.34
2022-07-29T13:59:16.783Z,97053.41
2022-07-29T14:01:45.495Z,97052.41
2022-07-29T14:04:14.861Z,97049.69
2022-07-29T14:06:43.345Z,97048.84
2022-07-29T14:09:11.800Z,97045.16
2022-07-29T14:11:40.757Z,97040.72
2022-07-29T14:14:08.967Z,97038.88
2022-07-29T14:16:43.061Z,97039.91
2022-07-29T14:19:12.180Z,97042.59
2022-07-29T14:21:40.372Z,97043.44
2022-07-29T14:24:18.028Z,97048.84
2022-07-29T14:26:50.107Z,97034.34
2022-07-29T14:29:18.404Z,97035.22
2022-07-29T14:31:47.951Z,97030.63
2022-07-29T14:34:16.534Z,97034.22
2022-07-29T14:36:44.653Z,97033.22
2022-07-29T14:39:13.131Z,97029.66
2022-07-29T14:41:41.367Z,97025.97
2022-07-29T14:44:09.444Z,97026.81
2022-07-29T14:46:37.569Z,97029.28
2022-07-29T14:49:07.703Z,97025.72
2022-07-29T14:51:38.276Z,97018.47
2022-07-29T14:54:08.567Z,97019.28
2022-07-29T14:56:37.637Z,97018.31
2022-07-29T14:59:14.688Z,97012.78
2022-07-29T15:01:42.808Z,97011.78
2022-07-29T15:04:12.275Z,97003.53
2022-07-29T15:06:40.520Z,96998.00
2022-07-29T15:09:08.588Z,96996.00
2022-07-29T15:11:38.448Z,97000.44
2022-07-29T15:14:06.916Z,96987.91
2022-07-29T15:16:35.283Z,96988.63
2022-07-29T15:19:03.543Z,96991.19
2022-07-29T15:21:33.086Z,96996.59
2022-07-29T15:24:01.166Z,96993.88
2022-07-29T15:26:29.407Z,96987.66
2022-07-29T15:28:57.738Z,96983.94
2022-07-29T15:31:25.990Z,96978.41
2022-07-29T15:33:58.115Z,96975.81
2022-07-29T15:36:50.903Z,96978.53
2022-07-29T15:39:17.266Z,96973.13
2022-07-29T15:41:45.437Z,96963.31
2022-07-29T15:44:13.830Z,96965.16
2022-07-29T15:46:59.716Z,96967.00
2022-07-29T15:49:47.266Z,96969.69
2022-07-29T15:52:18.944Z,96959.03
2022-07-29T15:54:49.835Z,96960.88
2022-07-29T15:57:18.168Z,96960.88
2022-07-29T15:59:46.281Z,96960.00
2022-07-29T16:02:14.407Z,96959.16
2022-07-29T16:04:42.469Z,96956.31
2022-07-29T16:07:10.621Z,96952.75
2022-07-29T16:09:38.691Z,96944.66
2022-07-29T16:12:10.560Z,96944.66
2022-07-29T16:14:44.011Z,96942.81
2022-07-29T16:17:15.006Z,96947.34
2022-07-29T16:19:44.098Z,96945.50
2022-07-29T16:22:12.232Z,96939.25
2022-07-29T16:24:40.398Z,96937.53
2022-07-29T16:27:09.939Z,96942.94
2022-07-29T16:29:38.060Z,96946.47
2022-07-29T16:32:06.837Z,96945.66
2022-07-29T16:34:34.996Z,96937.66
2022-07-29T16:37:03.632Z,96932.25
2022-07-29T16:39:31.935Z,96926.00
2022-07-29T16:42:02.238Z,96928.72
2022-07-29T16:44:33.608Z,96925.16
2022-07-29T16:47:02.902Z,96931.41
2022-07-29T16:49:31.571Z,96930.56
2022-07-29T16:51:59.711Z,96924.28
2022-07-29T16:54:28.695Z,96925.28
2022-07-29T16:56:57.192Z,96926.13
2022-07-29T16:59:25.581Z,96921.72
2022-07-29T17:01:55.195Z,96921.72
2022-07-29T17:04:23.407Z,96920.84
2022-07-29T17:06:52.565Z,96920.84
2022-07-29T17:09:21.089Z,96921.88
2022-07-29T17:11:54.835Z,96918.31
2022-07-29T17:14:24.982Z,96915.59
2022-07-29T17:17:00.441Z,96922.84
2022-07-29T17:19:29.021Z,96920.13
2022-07-29T17:22:04.715Z,96915.59
2022-07-29T17:24:37.293Z,96922.84
2022-07-29T17:27:06.843Z,96921.16
2022-07-29T17:29:36.053Z,96914.88
2022-07-29T17:32:07.753Z,96921.97
2022-07-29T17:34:36.511Z,96927.38
2022-07-29T17:37:04.789Z,96924.56
2022-07-29T17:39:32.972Z,96919.28
2022-07-29T17:42:01.086Z,96921.88
2022-07-29T17:44:29.271Z,96925.28
2022-07-29T17:46:57.691Z,96937.94
2022-07-29T17:49:28.224Z,96932.41
2022-07-29T17:52:00.502Z,96939.63
2022-07-29T17:54:29.221Z,96945.03
2022-07-29T17:56:57.525Z,96941.50
2022-07-29T17:59:26.023Z,96938.81
2022-07-29T18:01:54.358Z,96932.41
2022-07-29T18:04:23.650Z,96942.34
2022-07-29T18:06:53.848Z,96935.09
2022-07-29T18:09:22.052Z,96938.81
2022-07-29T18:11:50.133Z,96939.63
2022-07-29T18:14:18.247Z,96936.09
2022-07-29T18:16:46.459Z,96935.09
2022-07-29T18:19:14.724Z,96937.81
2022-07-29T18:21:51.901Z,96933.41
2022-07-29T18:24:25.821Z,96935.09
2022-07-29T18:26:54.132Z,96935.97
2022-07-29T18:29:22.508Z,96928.72
2022-07-29T18:31:50.764Z,96926.72
2022-07-29T18:34:19.094Z,96919.44
2022-07-29T18:36:47.297Z,96926.72
2022-07-29T18:39:20.927Z,96934.84
2022-07-29T18:41:51.797Z,96936.53
2022-07-29T18:44:22.874Z,96936.53
2022-07-29T18:46:51.697Z,96941.94
2022-07-29T18:49:20.168Z,96945.66
2022-07-29T18:51:48.356Z,96952.75
2022-07-29T18:54:17.465Z,96951.78
2022-07-29T18:56:45.760Z,96960.88
2022-07-29T18:59:17.065Z,96963.56
2022-07-29T19:01:45.364Z,96976.22
2022-07-29T19:04:13.507Z,96985.50
2022-07-29T19:06:41.816Z,96993.72
2022-07-29T19:09:10.023Z,96984.88
2022-07-29T19:11:38.242Z,96992.16
2022-07-29T19:14:07.038Z,96992.25
2022-07-29T19:16:36.695Z,96990.56
2022-07-29T19:19:04.851Z,96998.69
2022-07-29T19:21:33.024Z,97005.06
2022-07-29T19:24:06.215Z,97015.88
2022-07-29T19:26:39.349Z,97020.44
2022-07-29T19:29:07.505Z,97031.13
2022-07-29T19:31:37.126Z,97036.53
2022-07-29T19:34:05.304Z,97058.16
2022-07-29T19:36:33.349Z,97064.41
2022-07-29T19:39:01.745Z,97067.94
2022-07-29T19:41:29.840Z,97072.63
2022-07-29T19:43:58.001Z,97078.03
2022-07-29T19:46:28.798Z,97084.44
2022-07-29T19:48:58.446Z,97085.31
2022-07-29T19:51:27.052Z,97094.41
2022-07-29T19:53:55.277Z,97095.25
2022-07-29T19:56:26.625Z,97096.22
2022-07-29T19:58:55.016Z,97113.31
2022-07-29T20:01:23.415Z,97114.31
2022-07-29T20:03:51.711Z,97112.59
2022-07-29T20:06:21.211Z,97121.56
2022-07-29T20:08:49.336Z,97127.94
2022-07-29T20:11:17.460Z,97139.63
2022-07-29T20:13:45.607Z,97150.44
2022-07-29T20:16:13.789Z,97161.25
2022-07-29T20:18:41.988Z,97155.84
2022-07-29T20:21:10.101Z,97154.88
2022-07-29T20:23:39.664Z,97147.72
2022-07-29T20:26:09.720Z,97147.72
2022-07-29T20:28:40.294Z,97155.84
2022-07-29T20:31:08.844Z,97165.94
2022-07-29T20:33:37.075Z,97167.66
2022-07-29T20:36:05.955Z,97163.22
2022-07-29T20:38:34.064Z,97144.56
2022-07-29T20:41:03.618Z,97134.16
2022-07-29T20:43:39.051Z,97121.00
2022-07-29T20:46:07.808Z,97119.41
2022-07-29T20:48:35.959Z,97109.34
2022-07-29T20:51:04.095Z,97104.66
2022-07-29T20:53:32.859Z,97106.41
2022-07-29T20:56:01.061Z,97106.41
2022-07-29T20:58:32.332Z,97104.41
2022-07-29T21:01:00.542Z,97090.91
2022-07-29T21:03:28.653Z,97081.06
2022-07-29T21:05:56.756Z,97087.19
2022-07-29T21:08:24.915Z,97084.50
2022-07-29T21:10:53.044Z,97089.91
2022-07-29T21:13:23.047Z,97082.66
2022-07-29T21:15:55.242Z,97079.97
2022-07-29T21:18:36.950Z,97073.69
2022-07-29T21:21:05.963Z,97072.84
2022-07-29T21:23:34.057Z,97067.44
2022-07-29T21:26:06.936Z,97068.41
2022-07-29T21:28:38.539Z,97066.59
2022-07-29T21:31:08.997Z,97055.91
2022-07-29T21:33:37.180Z,97059.44
2022-07-29T21:38:53.964Z,97066.72
2022-07-29T21:41:22.455Z,97060.44
2022-07-29T21:43:50.633Z,97058.72
2022-07-29T21:46:20.801Z,97064.13
2022-07-29T21:48:52.715Z,97064.13
2022-07-29T21:51:20.852Z,97064.13
2022-07-29T21:53:49.058Z,97060.59
2022-07-29T21:56:18.055Z,97052.47
2022-07-29T21:58:46.352Z,97049.78
2022-07-29T22:01:14.870Z,97045.34
2022-07-29T22:03:44.500Z,97047.19
2022-07-29T22:06:18.324Z,97048.06
2022-07-29T22:08:48.044Z,97055.28
2022-07-29T22:11:16.208Z,97057.16
2022-07-29T22:13:44.345Z,97056.28
2022-07-29T22:16:15.020Z,97041.91
2022-07-29T22:18:46.950Z,97042.78
2022-07-29T22:21:15.362Z,97041.91
2022-07-29T22:23:43.487Z,97045.47
2022-07-29T22:26:11.687Z,97036.50
2022-07-29T22:28:39.845Z,97039.34
2022-07-29T22:31:08.912Z,97039.22
2022-07-29T22:33:37.182Z,97031.25
2022-07-29T22:36:07.230Z,97026.81
2022-07-29T22:38:35.321Z,97020.44
2022-07-29T22:41:03.549Z,97019.56
2022-07-29T22:43:31.665Z,97017.88
2022-07-29T22:45:59.818Z,97019.72
2022-07-29T22:48:27.941Z,97021.56
2022-07-29T22:50:56.075Z,97013.44
2022-07-29T22:53:25.629Z,97012.47
2022-07-29T22:55:54.701Z,97013.44
2022-07-29T22:58:22.899Z,97008.03
2022-07-29T23:00:51.162Z,97001.78
2022-07-29T23:03:19.374Z,97000.06
2022-07-29T23:05:47.515Z,97003.66
2022-07-29T23:08:15.657Z,96999.06
2022-07-29T23:10:45.179Z,96983.00
2022-07-29T23:13:13.327Z,96985.69
2022-07-29T23:15:41.594Z,96984.84
2022-07-29T23:18:09.917Z,96982.03
2022-07-29T23:20:38.080Z,96984.00
2022-07-29T23:23:06.171Z,96978.59
2022-07-29T23:25:34.552Z,96976.72
2022-07-29T23:28:04.029Z,96969.50
2022-07-29T23:30:32.467Z,96984.00
2022-07-29T23:33:00.673Z,96978.59
2022-07-29T23:35:28.724Z,96981.31
2022-07-29T23:37:56.871Z,96978.59
2022-07-29T23:40:24.943Z,96984.00
2022-07-29T23:42:53.067Z,96983.13
2022-07-29T23:45:22.523Z,96982.28
2022-07-29T23:48:09.084Z,96979.56
2022-07-29T23:50:37.193Z,96976.88
2022-07-29T23:53:05.369Z,96974.16
2022-07-29T23:55:37.464Z,96974.16
2022-07-29T23:58:07.201Z,96964.38
